Time;durP1;ratioP1;P1;durP2;ratioP2;P2;SDS_P1;SDS_P2;PMS_P1;PMS_P2;Temp;Humidity;BMP_temperature;BMP_pressure;BME280_temperature;BME280_humidity;BME280_pressure;Samples;Min_cycle;Max_cycle;Signal;HPM_P1;HPM_P2
2023/03/05 00:01:37;;;;;;;;;;;;;;;-140.72;88.06;53129.53;5069737;28;20298;-72
2023/03/05 00:04:03;;;;;;;;;;;;;;;-140.72;95.12;53054.44;5066942;28;19923;-72
2023/03/05 00:06:29;;;;;;;;;;;;;;;-140.72;100.00;53117.34;5068374;28;19916;-71
2023/03/05 00:08:57;;;;;;;;;;;;;;;-140.72;100.00;53103.16;5074502;28;19924;-72
2023/03/05 00:11:23;;;;;;;;;;;;;;;-140.72;100.00;53147.78;5074530;28;19962;-72
2023/03/05 00:13:51;;;;;;;;;;;;;;;-140.72;100.00;53178.22;5107313;28;19959;-72
2023/03/05 00:16:17;;;;;;;;;;;;;;;-140.72;100.00;53133.59;5061004;28;19936;-71
2023/03/05 00:18:42;;;;;;;;;;;;;;;-140.72;100.00;53149.81;5074247;28;19916;-71
2023/03/05 00:21:24;;;;;;;;;;;;;;;-140.72;100.00;53133.59;5073405;28;19916;-72
2023/03/05 00:23:49;;;;;;;;;;;;;;;-140.72;100.00;53149.81;5064630;28;19917;-72
2023/03/05 00:26:15;;;;;;;;;;;;;;;-140.72;100.00;53066.63;5054316;28;20295;-71
2023/03/05 00:28:41;;;;;;;;;;;;;;;-140.72;100.00;53105.19;5072454;28;19966;-72
2023/03/05 00:31:06;;;;;;;;;;;;;;;-140.72;100.00;53074.72;5062027;28;19916;-72
2023/03/05 00:33:31;;;;;;;;;;;;;;;-140.72;100.00;53123.44;5068070;28;19916;-71
2023/03/05 00:36:00;;;;;;;;;;;;;;;-140.72;100.00;53127.50;5067084;28;20371;-72
2023/03/05 00:38:25;;;;;;;;;;;;;;;-140.72;100.00;53137.66;5063280;28;19957;-72
2023/03/05 00:40:50;;;;;;;;;;;;;;;-140.72;100.00;53113.28;5060922;28;19924;-71
2023/03/05 00:43:16;;;;;;;;;;;;;;;-140.72;100.00;53174.19;5067653;28;20312;-72
2023/03/05 00:45:41;;;;;;;;;;;;;;;-140.72;100.00;53121.41;5064481;28;20386;-72
2023/03/05 00:48:06;;;;;;;;;;;;;;;-140.72;100.00;53119.38;5066696;28;19970;-71
2023/03/05 00:50:31;;;;;;;;;;;;;;;-140.72;100.00;53093.00;5066574;28;19955;-72
2023/03/05 00:52:57;;;;;;;;;;;;;;;-140.72;100.00;53117.34;5073505;28;19924;-72
2023/03/05 00:55:22;;;;;;;;;;;;;;;-140.72;100.00;53164.03;5072593;28;19916;-72
2023/03/05 00:57:47;;;;;;;;;;;;;;;-140.72;100.00;53135.63;5070715;28;19920;-72
2023/03/05 01:00:14;;;;;;;;;;;;;;;-140.72;100.00;53123.44;5068606;28;20192;-71
2023/03/05 01:02:39;;;;;;;;;;;;;;;-140.72;100.00;53143.72;5065544;28;19932;-71
2023/03/05 01:05:05;;;;;;;;;;;;;;;-140.72;100.00;53127.50;5041141;28;19982;-71
2023/03/05 01:07:30;;;;;;;;;;;;;;;-140.72;100.00;53133.59;5066006;28;19942;-72
2023/03/05 01:09:55;;;;;;;;;;;;;;;-140.72;100.00;53113.28;5077111;28;19924;-72
2023/03/05 01:12:21;;;;;;;;;;;;;;;-140.72;100.00;53109.22;5078642;28;19962;-72
2023/03/05 01:14:46;;;;;;;;;;;;;;;-140.72;100.00;53145.75;5075559;28;19951;-71
2023/03/05 01:17:11;;;;;;;;;;;;;;;-140.72;100.00;53141.69;5073827;28;20335;-71
2023/03/05 01:19:36;;;;;;;;;;;;;;;-140.72;100.00;53133.59;5070033;28;19920;-71
2023/03/05 01:22:02;;;;;;;;;;;;;;;-140.72;100.00;53141.69;5069889;28;19921;-71
2023/03/05 01:24:27;;;;;;;;;;;;;;;-140.72;100.00;53137.66;5049230;28;19923;-72
2023/03/05 01:26:52;;;;;;;;;;;;;;;-140.72;100.00;53133.59;5063612;28;20390;-71
2023/03/05 01:29:17;;;;;;;;;;;;;;;-140.72;100.00;53145.75;5055327;28;19962;-72
2023/03/05 01:31:43;;;;;;;;;;;;;;;-140.72;100.00;53157.94;5059932;28;19924;-72
2023/03/05 01:34:08;;;;;;;;;;;;;;;-140.72;100.00;53117.34;5055679;28;19917;-72
2023/03/05 01:36:33;;;;;;;;;;;;;;;-140.72;100.00;53103.16;5073551;28;20015;-71
2023/03/05 01:38:58;;;;;;;;;;;;;;;-140.72;100.00;53141.69;5080934;28;19916;-71
2023/03/05 01:41:24;;;;;;;;;;;;;;;-140.72;100.00;53105.19;5061472;28;19917;-71
2023/03/05 01:43:51;;;;;;;;;;;;;;;-140.72;100.00;53127.50;5083186;28;20285;-71
2023/03/05 01:46:22;;;;;;;;;;;;;;;-140.72;100.00;53141.69;5057814;28;19943;-72
2023/03/05 01:48:51;;;;;;;;;;;;;;;-140.72;100.00;53103.16;5066318;28;19917;-72
2023/03/05 01:51:18;;;;;;;;;;;;;;;-140.72;100.00;53149.81;5071407;28;19970;-72
2023/03/05 01:53:43;;;;;;;;;;;;;;;-140.72;100.00;53131.56;5077463;28;19962;-72
2023/03/05 01:56:08;;;;;;;;;;;;;;;-140.72;100.00;53121.41;5081782;28;19916;-71
2023/03/05 01:58:36;;;;;;;;;;;;;;;-140.72;100.00;53095.03;5052161;28;19942;-72
2023/03/05 02:01:01;;;;;;;;;;;;;;;-140.72;100.00;53137.66;5074952;28;19920;-72
2023/03/05 02:03:26;;;;;;;;;;;;;;;-140.72;100.00;53147.78;5075920;28;19916;-72
2023/03/05 02:05:52;;;;;;;;;;;;;;;-140.72;100.00;53097.06;5076341;28;19920;-72
2023/03/05 02:08:19;;;;;;;;;;;;;;;-140.72;100.00;53141.69;5064880;28;19924;-71
2023/03/05 02:10:46;;;;;;;;;;;;;;;-140.72;100.00;53074.72;5073778;28;19916;-72
2023/03/05 02:13:21;;;;;;;;;;;;;;;-140.72;100.00;53113.28;5067250;28;19917;-71
2023/03/05 02:15:48;;;;;;;;;;;;;;;-140.72;100.00;53137.66;5076186;28;19916;-72
2023/03/05 02:18:13;;;;;;;;;;;;;;;-140.72;100.00;53137.66;5066914;28;20283;-72
2023/03/05 02:20:55;;;;;;;;;;;;;;;-140.72;100.00;53117.34;5073545;28;19920;-72
2023/03/05 02:23:21;;;;;;;;;;;;;;;-140.72;100.00;53133.59;5074535;28;20010;-72
2023/03/05 02:25:47;;;;;;;;;;;;;;;-140.72;100.00;53084.88;5062535;28;19924;-71
2023/03/05 02:28:27;;;;;;;;;;;;;;;-140.72;100.00;53174.19;5076411;28;19916;-72
2023/03/05 02:30:53;;;;;;;;;;;;;;;-140.72;100.00;53119.38;5076381;28;19923;-72
2023/03/05 02:33:18;;;;;;;;;;;;;;;-140.72;100.00;53121.41;5080841;28;19952;-71
2023/03/05 02:35:45;;;;;;;;;;;;;;;-140.72;100.00;53093.00;5073123;28;19924;-71
2023/03/05 02:38:11;;;;;;;;;;;;;;;-140.72;100.00;53155.91;5062473;28;20015;-72
2023/03/05 02:40:36;;;;;;;;;;;;;;;-140.72;100.00;53119.38;5075986;28;19974;-72
2023/03/05 02:43:02;;;;;;;;;;;;;;;-140.72;100.00;53188.38;5051711;28;19916;-72
2023/03/05 02:45:27;;;;;;;;;;;;;;;-140.72;100.00;53129.53;5069131;28;19923;-72
2023/03/05 02:47:54;;;;;;;;;;;;;;;-140.72;100.00;53147.78;5074581;28;20291;-71
2023/03/05 02:50:19;;;;;;;;;;;;;;;-140.72;100.00;53147.78;5076359;28;19938;-71
2023/03/05 02:52:44;;;;;;;;;;;;;;;-140.72;100.00;53127.50;5070666;28;19917;-71
2023/03/05 02:55:10;;;;;;;;;;;;;;;-140.72;100.00;53155.91;5056425;28;19959;-71
2023/03/05 02:57:35;;;;;;;;;;;;;;;-140.72;100.00;53157.94;5065242;28;20002;-72
2023/03/05 03:00:01;;;;;;;;;;;;;;;-140.72;100.00;53121.41;5075774;28;19927;-71
2023/03/05 03:02:26;;;;;;;;;;;;;;;-140.72;100.00;53125.47;5078047;28;20023;-72
2023/03/05 03:04:51;;;;;;;;;;;;;;;-140.72;100.00;53123.44;5063137;28;19921;-71
2023/03/05 03:07:16;;;;;;;;;;;;;;;-140.72;100.00;53147.78;5073135;28;19921;-71
2023/03/05 03:09:42;;;;;;;;;;;;;;;-140.72;100.00;53162.00;5075332;28;19923;-72
2023/03/05 03:12:07;;;;;;;;;;;;;;;-140.72;100.00;53117.34;5061361;28;19920;-71
2023/03/05 03:14:38;;;;;;;;;;;;;;;-140.72;100.00;53137.66;5063382;28;20463;-71
2023/03/05 03:17:10;;;;;;;;;;;;;;;-140.72;100.00;53139.69;5075244;28;19923;-71
2023/03/05 03:19:36;;;;;;;;;;;;;;;-140.72;100.00;53117.34;5074516;28;20012;-72
2023/03/05 03:22:01;;;;;;;;;;;;;;;-140.72;100.00;53099.09;5055697;28;20418;-72
2023/03/05 03:24:28;;;;;;;;;;;;;;;-140.72;100.00;53125.47;5064707;28;20291;-71
2023/03/05 03:26:53;;;;;;;;;;;;;;;-140.72;100.00;53103.16;5073993;28;19917;-72
2023/03/05 03:29:19;;;;;;;;;;;;;;;-140.72;100.00;53145.75;5076796;28;19920;-72
2023/03/05 03:31:44;;;;;;;;;;;;;;;-140.72;100.00;53109.22;5078327;28;19916;-71
2023/03/05 03:34:11;;;;;;;;;;;;;;;-140.72;100.00;53129.53;5068685;28;19927;-71
2023/03/05 03:36:36;;;;;;;;;;;;;;;-140.72;100.00;53117.34;5071675;28;20301;-71
2023/03/05 03:39:04;;;;;;;;;;;;;;;-140.72;100.00;53123.44;5075018;28;19923;-71
2023/03/05 03:41:30;;;;;;;;;;;;;;;-140.72;100.00;53149.81;5069047;28;19920;-71
2023/03/05 03:43:55;;;;;;;;;;;;;;;-140.72;100.00;53099.09;5070303;28;19974;-72
2023/03/05 03:46:26;;;;;;;;;;;;;;;-140.72;100.00;53111.25;5074942;28;19923;-72
2023/03/05 03:48:52;;;;;;;;;;;;;;;-140.72;100.00;53129.53;5066576;28;19920;-71
2023/03/05 03:51:17;;;;;;;;;;;;;;;-140.72;100.00;53107.19;5074720;28;19920;-72
2023/03/05 03:53:42;;;;;;;;;;;;;;;-140.72;100.00;53155.91;5067337;28;19924;-71
2023/03/05 03:56:07;;;;;;;;;;;;;;;-140.72;100.00;53101.13;5105543;28;19921;-71
2023/03/05 03:58:33;;;;;;;;;;;;;;;-140.72;100.00;53143.72;5075176;28;19971;-71
2023/03/05 04:00:58;;;;;;;;;;;;;;;-140.72;100.00;53097.06;5074637;28;19917;-71
2023/03/05 04:03:23;;;;;;;;;;;;;;;-140.72;100.00;53109.22;5072937;28;20389;-71
2023/03/05 04:05:48;;;;;;;;;;;;;;;-140.72;100.00;53129.53;5068172;28;19923;-71
2023/03/05 04:08:13;;;;;;;;;;;;;;;-140.72;100.00;53123.44;5066870;28;19939;-72
2023/03/05 04:10:39;;;;;;;;;;;;;;;-140.72;100.00;53121.41;5074107;28;19921;-71
2023/03/05 04:13:05;;;;;;;;;;;;;;;-140.72;100.00;53186.34;5075156;28;19996;-71
2023/03/05 04:15:31;;;;;;;;;;;;;;;-140.72;100.00;53135.63;5069464;28;19917;-71
2023/03/05 04:17:56;;;;;;;;;;;;;;;-140.72;100.00;53113.28;5060017;28;19963;-72
2023/03/05 04:20:21;;;;;;;;;;;;;;;-140.72;100.00;53099.09;5074562;28;19923;-72
2023/03/05 04:22:46;;;;;;;;;;;;;;;-140.72;100.00;53101.13;5056270;28;19923;-72
2023/03/05 04:25:12;;;;;;;;;;;;;;;-140.72;100.00;53121.41;5061004;28;20406;-71
2023/03/05 04:27:39;;;;;;;;;;;;;;;-140.72;100.00;53109.22;5067520;28;19916;-72
2023/03/05 04:30:04;;;;;;;;;;;;;;;-140.72;100.00;53123.44;5070759;28;19920;-71
2023/03/05 04:32:29;;;;;;;;;;;;;;;-140.72;100.00;53129.53;5074009;28;20397;-72
2023/03/05 04:34:55;;;;;;;;;;;;;;;-140.72;100.00;53133.59;5074467;28;19917;-71
2023/03/05 04:37:21;;;;;;;;;;;;;;;-140.72;100.00;53133.59;5074273;28;19924;-72
2023/03/05 04:39:46;;;;;;;;;;;;;;;-140.72;100.00;53135.63;5074162;28;19916;-71
2023/03/05 04:42:11;;;;;;;;;;;;;;;-140.72;100.00;53125.47;5066020;28;19916;-72
2023/03/05 04:44:37;;;;;;;;;;;;;;;-140.72;100.00;53105.19;5060672;28;19916;-72
2023/03/05 04:47:03;;;;;;;;;;;;;;;-140.72;100.00;53145.75;5074541;28;19993;-72
2023/03/05 04:49:28;;;;;;;;;;;;;;;-140.72;100.00;53117.34;5076833;28;19923;-72
2023/03/05 04:51:53;;;;;;;;;;;;;;;-140.72;100.00;53141.69;5074762;28;19986;-72
2023/03/05 04:54:18;;;;;;;;;;;;;;;-140.72;100.00;53129.53;5074102;28;20074;-72
2023/03/05 04:56:44;;;;;;;;;;;;;;;-140.72;100.00;53139.69;5066957;28;19920;-72
2023/03/05 04:59:09;;;;;;;;;;;;;;;-140.72;100.00;53111.25;5072999;28;19924;-72
2023/03/05 05:01:34;;;;;;;;;;;;;;;-140.72;100.00;53159.97;5070858;28;19978;-72
2023/03/05 05:04:00;;;;;;;;;;;;;;;-140.72;100.00;53147.78;5069337;28;19921;-72
2023/03/05 05:06:25;;;;;;;;;;;;;;;-140.72;100.00;53139.69;5073697;28;20363;-72
2023/03/05 05:08:50;;;;;;;;;;;;;;;-140.72;100.00;53143.72;5060402;28;19916;-72
2023/03/05 05:11:15;;;;;;;;;;;;;;;-140.72;100.00;53149.81;5072534;28;19916;-72
2023/03/05 05:13:40;;;;;;;;;;;;;;;-140.72;100.00;53105.19;5072472;28;20051;-71
2023/03/05 05:16:06;;;;;;;;;;;;;;;-140.72;100.00;53149.81;5071197;28;19916;-72
2023/03/05 05:18:31;;;;;;;;;;;;;;;-140.72;100.00;53103.16;5065882;28;20363;-72
2023/03/05 05:20:57;;;;;;;;;;;;;;;-140.72;100.00;53141.69;5062422;28;19986;-72
2023/03/05 05:23:22;;;;;;;;;;;;;;;-140.72;100.00;53155.91;5062668;28;20408;-72
2023/03/05 05:26:00;;;;;;;;;;;;;;;-140.72;100.00;53145.75;5065920;28;19917;-71
2023/03/05 05:28:25;;;;;;;;;;;;;;;-140.72;100.00;53149.81;5089327;28;19923;-72
2023/03/05 05:30:50;;;;;;;;;;;;;;;-140.72;100.00;53139.69;5101868;28;20007;-72
2023/03/05 05:33:16;;;;;;;;;;;;;;;-140.72;100.00;53133.59;5070875;28;19983;-71
2023/03/05 05:35:41;;;;;;;;;;;;;;;-140.72;100.00;53137.66;5060659;28;19970;-72
2023/03/05 05:38:06;;;;;;;;;;;;;;;-140.72;100.00;53166.06;5075070;28;19916;-72
2023/03/05 05:40:31;;;;;;;;;;;;;;;-140.72;100.00;53157.94;5075933;28;19970;-72
2023/03/05 05:42:57;;;;;;;;;;;;;;;-140.72;100.00;53129.53;5071498;28;19923;-71
2023/03/05 05:45:22;;;;;;;;;;;;;;;-140.72;100.00;53135.63;5082861;28;19966;-72
2023/03/05 05:47:47;;;;;;;;;;;;;;;-140.72;100.00;53117.34;5085442;28;19917;-72
2023/03/05 05:50:13;;;;;;;;;;;;;;;-140.72;100.00;53170.13;5088436;28;19924;-72
2023/03/05 05:52:38;;;;;;;;;;;;;;;-140.72;100.00;53141.69;5120440;28;19916;-72
2023/03/05 05:55:04;;;;;;;;;;;;;;;-140.72;100.00;53157.94;5084922;28;20000;-72
2023/03/05 05:57:29;;;;;;;;;;;;;;;-140.72;100.00;53137.66;5068794;28;19925;-72
2023/03/05 05:59:54;;;;;;;;;;;;;;;-140.72;100.00;53159.97;5078050;28;19974;-72
2023/03/05 06:02:19;;;;;;;;;;;;;;;-140.72;100.00;53141.69;5075234;28;19983;-74
2023/03/05 06:04:45;;;;;;;;;;;;;;;-140.72;100.00;53153.88;5056284;28;19924;-72
2023/03/05 06:07:10;;;;;;;;;;;;;;;-140.72;100.00;53113.28;5069807;28;19916;-71
2023/03/05 06:09:35;;;;;;;;;;;;;;;-140.72;100.00;53164.03;5070461;28;20011;-73
2023/03/05 06:12:00;;;;;;;;;;;;;;;-140.72;100.00;53119.38;5074288;28;19959;-73
2023/03/05 06:14:26;;;;;;;;;;;;;;;-140.72;100.00;53133.59;5077066;28;19924;-72
2023/03/05 06:16:51;;;;;;;;;;;;;;;-140.72;100.00;53133.59;5065554;28;19960;-72
2023/03/05 06:19:16;;;;;;;;;;;;;;;-140.72;100.00;53143.72;5076875;28;20007;-71
2023/03/05 06:21:42;;;;;;;;;;;;;;;-140.72;100.00;53109.22;5083320;28;19916;-72
2023/03/05 06:24:07;;;;;;;;;;;;;;;-140.72;100.00;53145.75;5076429;28;19924;-72
2023/03/05 06:26:33;;;;;;;;;;;;;;;-140.72;100.00;53137.66;5059261;28;19963;-72
2023/03/05 06:28:58;;;;;;;;;;;;;;;-140.72;100.00;53117.34;5067953;28;19917;-72
2023/03/05 06:31:24;;;;;;;;;;;;;;;-140.72;100.00;53066.63;5063293;28;19916;-75
2023/03/05 06:33:50;;;;;;;;;;;;;;;-140.72;100.00;53174.19;5083344;28;19925;-72
2023/03/05 06:36:24;;;;;;;;;;;;;;;-140.72;100.00;53137.66;5055004;28;19916;-72
2023/03/05 06:38:50;;;;;;;;;;;;;;;-140.72;100.00;53093.00;5064295;28;20113;-72
2023/03/05 06:41:17;;;;;;;;;;;;;;;-140.72;100.00;53141.69;5073170;28;19928;-72
2023/03/05 06:43:43;;;;;;;;;;;;;;;-140.72;100.00;53119.38;5059208;28;19924;-72
2023/03/05 06:46:13;;;;;;;;;;;;;;;-140.72;100.00;53149.81;5063363;28;19923;-72
2023/03/05 06:48:38;;;;;;;;;;;;;;;-140.72;100.00;53149.81;5068025;28;20286;-72
2023/03/05 06:51:03;;;;;;;;;;;;;;;-140.72;100.00;53107.19;5066550;28;19917;-72
2023/03/05 06:53:29;;;;;;;;;;;;;;;-140.72;100.00;53125.47;5075274;28;20019;-72
2023/03/05 06:55:55;;;;;;;;;;;;;;;-140.72;100.00;53133.59;5073046;28;19995;-72
2023/03/05 06:58:20;;;;;;;;;;;;;;;-140.72;100.00;53097.06;5068297;28;20310;-72
2023/03/05 07:00:46;;;;;;;;;;;;;;;-140.72;100.00;53097.06;5064516;28;19917;-72
2023/03/05 07:03:11;;;;;;;;;;;;;;;-140.72;100.00;53141.69;5073808;28;19924;-73
2023/03/05 07:05:37;;;;;;;;;;;;;;;-140.72;100.00;53157.94;5101833;28;19996;-73
2023/03/05 07:08:03;;;;;;;;;;;;;;;-140.72;100.00;53080.81;5075296;28;19967;-73
2023/03/05 07:10:28;;;;;;;;;;;;;;;-140.72;100.00;53080.81;5075309;28;19924;-73
2023/03/05 07:12:53;;;;;;;;;;;;;;;-140.72;100.00;53135.63;5074934;28;20378;-75
2023/03/05 07:15:18;;;;;;;;;;;;;;;-140.72;100.00;53137.66;5071778;28;19921;-74
2023/03/05 07:17:43;;;;;;;;;;;;;;;-140.72;100.00;53151.84;5055779;28;20042;-74
2023/03/05 07:20:09;;;;;;;;;;;;;;;-140.72;100.00;53125.47;5103478;28;19920;-73
2023/03/05 07:22:35;;;;;;;;;;;;;;;-140.72;100.00;53127.50;5100690;28;20011;-73
2023/03/05 07:25:01;;;;;;;;;;;;;;;-140.72;100.00;53095.03;5069972;28;20383;-73
2023/03/05 07:27:26;;;;;;;;;;;;;;;-140.72;100.00;53123.44;5071557;28;19966;-74
2023/03/05 07:29:51;;;;;;;;;;;;;;;-140.72;100.00;53133.59;5071826;28;20259;-73
2023/03/05 07:32:16;;;;;;;;;;;;;;;-140.72;100.00;53103.16;5071472;28;19951;-73
2023/03/05 07:34:41;;;;;;;;;;;;;;;-140.72;100.00;53080.81;5074550;28;19977;-73
2023/03/05 07:37:07;;;;;;;;;;;;;;;-140.72;100.00;53076.75;5089986;28;19916;-73
2023/03/05 07:39:32;;;;;;;;;;;;;;;-140.72;100.00;53105.19;5075397;28;19917;-73
2023/03/05 07:41:57;;;;;;;;;;;;;;;-140.72;100.00;53080.81;5106246;28;19989;-73
2023/03/05 07:44:22;;;;;;;;;;;;;;;-140.72;100.00;53105.19;5104113;28;19920;-74
2023/03/05 07:46:48;;;;;;;;;;;;;;;-140.72;100.00;53103.16;5073938;28;20347;-73
2023/03/05 07:49:13;;;;;;;;;;;;;;;-140.72;100.00;53082.84;5072207;28;20347;-74
2023/03/05 07:51:39;;;;;;;;;;;;;;;-140.72;100.00;53093.00;5070793;28;20299;-73
2023/03/05 07:54:04;;;;;;;;;;;;;;;-140.72;100.00;53117.34;5073193;28;20283;-74
2023/03/05 07:56:34;;;;;;;;;;;;;;;-140.72;100.00;53097.06;5070317;28;20364;-74
2023/03/05 07:59:04;;;;;;;;;;;;;;;-140.72;100.00;53119.38;5073483;28;19920;-74
2023/03/05 08:01:30;;;;;;;;;;;;;;;-140.72;100.00;53107.19;5069716;28;19921;-75
2023/03/05 08:03:55;;;;;;;;;;;;;;;-140.72;100.00;53064.59;5102359;28;20023;-74
2023/03/05 08:06:20;;;;;;;;;;;;;;;-140.72;100.00;53113.28;5107050;28;19927;-74
2023/03/05 08:08:46;;;;;;;;;;;;;;;-140.72;100.00;53054.44;5069963;28;19977;-75
2023/03/05 08:11:13;;;;;;;;;;;;;;;-140.72;100.00;53093.00;5074177;28;20389;-74
2023/03/05 08:13:38;;;;;;;;;;;;;;;-140.72;100.00;53097.06;5074352;28;19916;-74
2023/03/05 08:16:07;;;;;;;;;;;;;;;-140.72;100.00;53111.25;5105261;28;19974;-75
2023/03/05 08:18:33;;;;;;;;;;;;;;;-140.72;100.00;53111.25;5070498;28;19924;-74
2023/03/05 08:20:58;;;;;;;;;;;;;;;-140.72;100.00;53066.63;5069587;28;19916;-74
2023/03/05 08:23:23;;;;;;;;;;;;;;;-140.72;100.00;53013.84;5075016;28;20294;-75
2023/03/05 08:25:49;;;;;;;;;;;;;;;-140.72;100.00;53072.69;5073605;28;19924;-74
2023/03/05 08:28:18;;;;;;;;;;;;;;;-140.72;100.00;53078.78;5068706;28;19920;-74
2023/03/05 08:30:43;;;;;;;;;;;;;;;-140.72;100.00;53056.47;5073667;28;19916;-75
2023/03/05 08:33:09;;;;;;;;;;;;;;;-140.72;100.00;53058.50;5103225;27;19953;-75
2023/03/05 08:35:34;;;;;;;;;;;;;;;-140.72;100.00;53056.47;5070415;28;19925;-75
2023/03/05 08:37:59;;;;;;;;;;;;;;;-140.72;100.00;53036.16;5070937;28;20313;-74
2023/03/05 08:40:24;;;;;;;;;;;;;;;-140.72;100.00;53052.41;5070512;28;19917;-74
2023/03/05 08:42:50;;;;;;;;;;;;;;;-140.72;100.00;53068.66;5070774;28;19916;-74
2023/03/05 08:45:16;;;;;;;;;;;;;;;-140.72;100.00;53028.06;5074296;28;20363;-75
2023/03/05 08:47:41;;;;;;;;;;;;;;;-140.72;100.00;53003.69;5071245;28;20011;-74
2023/03/05 08:50:06;;;;;;;;;;;;;;;-140.72;100.00;53068.66;5070584;28;20295;-76
2023/03/05 08:52:32;;;;;;;;;;;;;;;-140.72;100.00;53034.16;5070146;28;19923;-74
2023/03/05 08:57:59;;;;;;;;;;;;;;;-140.72;100.00;53036.16;5070767;28;20016;-75
2023/03/05 09:00:25;;;;;;;;;;;;;;;-140.72;100.00;53048.34;5068816;28;20004;-76
2023/03/05 09:02:50;;;;;;;;;;;;;;;-140.72;100.00;53024.00;5072189;28;20341;-77
2023/03/05 09:05:15;;;;;;;;;;;;;;;-140.72;100.00;53030.09;5079526;28;19981;-77
2023/03/05 09:07:41;;;;;;;;;;;;;;;-140.72;100.00;53024.00;5103518;28;19916;-75
2023/03/05 09:10:06;;;;;;;;;;;;;;;-140.72;100.00;53038.19;5101431;28;19923;-75
2023/03/05 09:12:31;;;;;;;;;;;;;;;-140.72;100.00;53032.13;5102497;28;19927;-73
2023/03/05 09:14:57;;;;;;;;;;;;;;;-140.72;100.00;52999.66;5097682;28;20016;-75
2023/03/05 09:17:22;;;;;;;;;;;;;;;-140.72;100.00;53040.22;5066321;28;19928;-73
2023/03/05 09:19:48;;;;;;;;;;;;;;;-140.72;100.00;53032.13;5068938;28;19916;-74
2023/03/05 09:22:13;;;;;;;;;;;;;;;-140.72;100.00;53021.97;5072618;28;19917;-75
2023/03/05 09:24:47;;;;;;;;;;;;;;;-140.72;100.00;53011.81;5118297;28;19955;-75
2023/03/05 09:27:13;;;;;;;;;;;;;;;-140.72;100.00;53024.00;5097675;28;20318;-74
2023/03/05 09:29:38;;;;;;;;;;;;;;;-140.72;100.00;53011.81;5066690;28;19917;-74
2023/03/05 09:32:03;;;;;;;;;;;;;;;-140.72;100.00;53076.75;5070114;28;19917;-75
2023/03/05 09:34:29;;;;;;;;;;;;;;;-140.72;100.00;53011.81;5069936;28;19920;-75
2023/03/05 09:36:54;;;;;;;;;;;;;;;-140.72;100.00;53042.25;5066661;28;20007;-75
2023/03/05 09:39:19;;;;;;;;;;;;;;;-140.72;100.00;53021.97;5094237;28;20372;-74
2023/03/05 09:41:44;;;;;;;;;;;;;;;-140.72;100.00;53015.88;5067209;28;19924;-74
2023/03/05 09:44:16;;;;;;;;;;;;;;;-140.72;100.00;53048.34;5073368;28;19961;-74
2023/03/05 09:46:42;;;;;;;;;;;;;;;-140.72;100.00;53032.13;5062382;28;19917;-74
2023/03/05 09:49:10;;;;;;;;;;;;;;;-140.72;100.00;53078.78;5088506;28;19968;-73
2023/03/05 09:51:39;;;;;;;;;;;;;;;-140.72;100.00;53046.31;5074041;28;19921;-73
2023/03/05 09:54:13;;;;;;;;;;;;;;;-140.72;100.00;53068.66;5073635;28;19916;-73
2023/03/05 09:56:40;;;;;;;;;;;;;;;-140.72;100.00;53074.72;5069289;28;19917;-73
2023/03/05 09:59:24;;;;;;;;;;;;;;;-140.72;100.00;53048.34;5078497;28;20263;-74
2023/03/05 10:01:51;;;;;;;;;;;;;;;-140.72;100.00;53074.72;5062939;28;19921;-74
2023/03/05 10:04:39;;;;;;;;;;;;;;;-140.72;100.00;53070.69;5070232;28;19923;-74
2023/03/05 10:07:12;;;;;;;;;;;;;;;-140.72;100.00;53044.28;5088284;28;19940;-74
2023/03/05 10:09:58;;;;;;;;;;;;;;;-140.72;100.00;53044.28;5064907;28;19962;-75
2023/03/05 10:12:44;;;;;;;;;;;;;;;-140.72;100.00;53019.94;5073799;28;19944;-74
2023/03/05 10:15:37;;;;;;;;;;;;;;;-140.72;100.00;52950.94;5071551;28;19930;-74
2023/03/05 10:18:12;;;;;;;;;;;;;;;-140.72;100.00;53040.22;5071752;28;20279;-74
2023/03/05 10:20:50;;;;;;;;;;;;;;;-140.72;100.00;53019.94;5097686;28;20455;-76
2023/03/05 10:23:30;;;;;;;;;;;;;;;-140.72;100.00;52989.50;5080066;28;19943;-80
2023/03/05 10:25:58;;;;;;;;;;;;;;;-140.72;100.00;52995.59;5071141;28;19924;-74
2023/03/05 10:28:23;;;;;;;;;;;;;;;-140.72;100.00;52983.41;5109889;28;20061;-73
2023/03/05 10:30:48;;;;;;;;;;;;;;;-140.72;100.00;53028.06;5077192;28;19959;-74
2023/03/05 10:33:17;;;;;;;;;;;;;;;-140.72;100.00;52993.56;5077008;28;19927;-74
2023/03/05 10:35:52;;;;;;;;;;;;;;;-140.72;100.00;52979.34;5064350;28;20386;-74
2023/03/05 10:38:36;;;;;;;;;;;;;;;-140.72;100.00;52999.66;5090705;28;19986;-73
2023/03/05 10:41:23;;;;;;;;;;;;;;;-140.72;100.00;52989.50;5073425;28;19927;-74
2023/03/05 10:44:11;;;;;;;;;;;;;;;-140.72;100.00;53005.72;5080239;28;19977;-74
2023/03/05 10:47:01;;;;;;;;;;;;;;;-140.72;100.00;52989.50;5073925;28;19916;-73
2023/03/05 10:49:31;;;;;;;;;;;;;;;-140.72;100.00;52950.94;5067941;28;19921;-73
2023/03/05 10:52:11;;;;;;;;;;;;;;;-140.72;100.00;52957.03;5083690;28;19920;-75
2023/03/05 10:54:40;;;;;;;;;;;;;;;-140.72;100.00;52934.69;5074504;28;20019;-74
2023/03/05 10:57:20;;;;;;;;;;;;;;;-140.72;100.00;52963.13;5083281;28;19920;-72
2023/03/05 10:59:47;;;;;;;;;;;;;;;-140.72;100.00;52973.25;5077814;28;19921;-72
2023/03/05 11:02:13;;;;;;;;;;;;;;;-140.72;100.00;52934.69;5076029;28;19921;-73
2023/03/05 11:04:38;;;;;;;;;;;;;;;-140.72;100.00;52942.81;5075890;28;19927;-72
2023/03/05 11:07:05;;;;;;;;;;;;;;;-140.72;100.00;52890.06;5065153;28;19920;-72
2023/03/05 11:09:31;;;;;;;;;;;;;;;-140.72;78.18;52902.22;5070080;28;19916;-70
2023/03/05 11:12:07;;;;;;;;;;;;;;;-140.72;42.91;52890.06;5061635;28;19917;-71
2023/03/05 11:14:33;;;;;;;;;;;;;;;-140.72;0.00;52894.13;5073215;28;20003;-71
2023/03/05 11:17:00;;;;;;;;;;;;;;;-140.72;0.00;52888.03;5074204;28;20007;-71
2023/03/05 11:19:31;;;;;;;;;;;;;;;-140.72;0.00;52817.00;5074663;28;19978;-71
2023/03/05 11:22:09;;;;;;;;;;;;;;;-140.72;0.00;52835.25;5075160;28;19942;-71
2023/03/05 11:24:35;;;;;;;;;;;;;;;-140.72;0.00;52845.41;5064657;28;19917;-73
2023/03/05 11:27:00;;;;;;;;;;;;;;;-140.72;0.00;52855.56;5063152;28;19924;-73
2023/03/05 11:29:28;;;;;;;;;;;;;;;-140.72;0.00;52888.03;5070235;28;20545;-75
2023/03/05 11:31:54;;;;;;;;;;;;;;;-140.72;0.00;52900.19;5077052;28;19923;-75
2023/03/05 11:34:19;;;;;;;;;;;;;;;-140.72;0.00;52902.22;5076138;28;20014;-73
2023/03/05 11:36:57;;;;;;;;;;;;;;;-140.72;0.00;52900.19;5063464;28;20000;-73
2023/03/05 11:39:23;;;;;;;;;;;;;;;-140.72;0.00;52906.28;5062607;28;20283;-74
2023/03/05 11:41:51;;;;;;;;;;;;;;;-140.72;0.00;52849.47;5067000;28;20291;-73
2023/03/05 11:44:33;;;;;;;;;;;;;;;-140.72;0.00;52861.66;5091385;28;19917;-73
2023/03/05 11:47:01;;;;;;;;;;;;;;;-140.72;0.00;52869.75;5108682;28;20007;-73
2023/03/05 11:49:27;;;;;;;;;;;;;;;-140.72;0.00;52845.41;5065653;28;19917;-73
2023/03/05 11:52:06;;;;;;;;;;;;;;;-140.72;0.00;52812.94;5067773;28;19917;-71
2023/03/05 11:54:44;;;;;;;;;;;;;;;-140.72;0.00;52888.03;5074516;28;19973;-72
2023/03/05 11:57:13;;;;;;;;;;;;;;;-140.72;0.00;52914.41;5103168;27;20344;-71
2023/03/05 11:59:39;;;;;;;;;;;;;;;-140.72;0.00;52896.16;5067811;28;19967;-71
2023/03/05 12:02:13;;;;;;;;;;;;;;;-140.72;0.00;52938.75;5099845;28;20370;-71
2023/03/05 12:04:38;;;;;;;;;;;;;;;-140.72;0.00;52873.81;5095256;28;20019;-71
2023/03/05 12:07:04;;;;;;;;;;;;;;;-140.72;0.00;52892.09;5076935;28;19952;-72
2023/03/05 12:09:29;;;;;;;;;;;;;;;-140.72;0.00;52865.69;5077512;28;20351;-72
2023/03/05 12:12:04;;;;;;;;;;;;;;;-140.72;0.00;52914.41;5072948;28;20391;-72
2023/03/05 12:14:44;;;;;;;;;;;;;;;-140.72;0.00;52922.53;5071906;28;19927;-72
2023/03/05 12:17:16;;;;;;;;;;;;;;;-140.72;0.00;52904.25;5075910;28;20398;-73
2023/03/05 12:19:44;;;;;;;;;;;;;;;-140.72;0.00;52865.69;5068951;28;19901;-72
2023/03/05 12:22:23;;;;;;;;;;;;;;;-140.72;0.00;52863.66;5069548;28;20394;-72